If you wish to contribute or participate in the discussions about articles you are invited to join SKYbrary as a registered user

 Actions

RAF Brize Norton

From SKYbrary Wiki

EGVN
Airport
ICAO: EGVN – IATA: BZZ
Summary
Name RAF Brize Norton
Region Europe
Territory United Kingdom GB.gif
Location Carterton, Oxfordshire, England
Serving Oxford
Elevation 87.782 m
288 ft
288 ft87.782 m
Coordinates 51° 45' 0.00" N, 1° 35' 2.00" W
Runways
Designator Length Width Surface ROPS
8/26 3050 m10,006.562 ft
56 m183.727 ft
ASP yes/yes


METAR
Observation EGVN 211150Z 08006KT CAVOK 20/02 Q1020 BLU NOSIG
Station Brize Norton
Date/Time 21 April 2019 11:50:00
Wind direction 80°
Wind speed 06 kts
Lowest cloud amount clouds and visibility OK
Temperature 20°C
Dew point 2°C
Humidity 30%
QNH 1020 hPa
Weather condition n/a

RAF Brize Norton

ICAO: EGVN IATA: BZZ

Description

The principal RAF transport hub in the UK which is also the base of the RAF air-to-air refuelling fleet.

Climatology

Temperate Marine climate/Oceanic climate (Köppen climate classification Cfb). Moderately cool summer and comparatively warm winter with a temperature range of only 14°C57.2 °F
287.15 K
516.87 °R
. Prevailing south-westerly winds from the Atlantic Ocean.

Maps

Terrain

Loading map...

Airport Layout

Loading map...


Accidents & Serious Incidents at or in vicinity of EGVN

None on SKYbrary